createdAt,value
2022-10-29T00:00:26.789Z,100928.60
2022-10-29T00:03:14.896Z,100924.20
2022-10-29T00:05:42.751Z,100920.60
2022-10-29T00:10:57.141Z,100909.80
2022-10-29T00:13:24.945Z,100909.80
2022-10-29T00:15:52.614Z,100906.60
2022-10-29T00:18:20.281Z,100909.60
2022-10-29T00:20:49.134Z,100910.00
2022-10-29T00:23:17.043Z,100898.80
2022-10-29T00:25:44.734Z,100902.80
2022-10-29T00:28:12.564Z,100900.60
2022-10-29T00:30:40.594Z,100895.20
2022-10-29T00:33:08.337Z,100893.60
2022-10-29T00:35:35.997Z,100892.40
2022-10-29T00:38:03.688Z,100887.80
2022-10-29T00:40:36.765Z,100887.60
2022-10-29T00:46:16.231Z,100886.80
2022-10-29T00:51:34.753Z,100887.80
2022-10-29T00:57:00.707Z,100883.40
2022-10-29T00:59:28.445Z,100879.20
2022-10-29T01:01:57.015Z,100876.60
2022-10-29T01:04:26.112Z,100873.20
2022-10-29T01:06:54.762Z,100872.60
2022-10-29T01:09:22.519Z,100873.00
2022-10-29T01:18:09.406Z,100861.80
2022-10-29T01:21:09.362Z,100860.20
2022-10-29T01:24:13.297Z,100863.80
2022-10-29T01:27:17.158Z,100862.60
2022-10-29T01:33:25.332Z,100871.20
2022-10-29T01:36:16.069Z,100872.00
2022-10-29T01:39:02.160Z,100873.80
2022-10-29T01:41:47.875Z,100870.40
2022-10-29T01:44:36.034Z,100880.60
2022-10-29T01:47:18.460Z,100871.00
2022-10-29T01:49:53.129Z,100865.00
2022-10-29T02:01:18.786Z,100854.40
2022-10-29T02:07:20.357Z,100859.60
2022-10-29T02:12:58.465Z,100854.00
2022-10-29T02:15:42.410Z,100849.40
2022-10-29T02:20:55.913Z,100847.00
2022-10-29T02:23:23.625Z,100840.00
2022-10-29T02:25:51.347Z,100842.80
2022-10-29T02:31:06.099Z,100833.60
2022-10-29T02:33:34.220Z,100827.60
2022-10-29T02:36:02.220Z,100821.40
2022-10-29T02:41:15.532Z,100813.60
2022-10-29T02:43:43.232Z,100804.80
2022-10-29T02:46:17.255Z,100805.80
2022-10-29T02:48:45.253Z,100804.20
2022-10-29T02:51:13.485Z,100800.60
2022-10-29T02:53:41.577Z,100801.80
2022-10-29T02:56:09.903Z,100795.60
2022-10-29T02:58:37.762Z,100794.20
2022-10-29T03:01:07.197Z,100790.60
2022-10-29T03:03:34.980Z,100790.80
2022-10-29T03:06:02.676Z,100790.80
2022-10-29T03:08:30.639Z,100798.60
2022-10-29T03:10:58.355Z,100794.60
2022-10-29T03:13:27.758Z,100789.00
2022-10-29T03:24:11.924Z,100784.40
2022-10-29T03:26:39.623Z,100779.00
2022-10-29T03:29:07.453Z,100772.00
2022-10-29T03:31:35.244Z,100767.60
2022-10-29T03:34:02.927Z,100762.80
2022-10-29T03:36:30.653Z,100758.00
2022-10-29T03:38:58.623Z,100751.20
2022-10-29T03:44:11.909Z,100755.60
2022-10-29T03:46:39.592Z,100756.00
2022-10-29T03:49:07.251Z,100757.80
2022-10-29T03:51:34.980Z,100761.20
2022-10-29T03:54:02.843Z,100766.80
2022-10-29T03:56:30.506Z,100766.40
2022-10-29T03:58:58.262Z,100771.80
2022-10-29T04:04:11.679Z,100781.00
2022-10-29T04:06:39.464Z,100786.40
2022-10-29T04:11:52.979Z,100785.40
2022-10-29T04:14:20.860Z,100782.20
2022-10-29T04:16:48.621Z,100785.40
2022-10-29T04:19:16.456Z,100781.00
2022-10-29T04:30:09.623Z,100759.20
2022-10-29T04:32:37.413Z,100759.80
2022-10-29T04:37:51.206Z,100761.40
2022-10-29T04:40:18.908Z,100761.40
2022-10-29T04:42:46.546Z,100758.40
2022-10-29T04:45:14.417Z,100753.80
2022-10-29T04:47:43.278Z,100752.40
2022-10-29T04:50:11.072Z,100749.60
2022-10-29T04:52:38.807Z,100753.00
2022-10-29T04:55:06.894Z,100757.00
2022-10-29T05:00:20.622Z,100754.80
2022-10-29T05:02:50.281Z,100754.00
2022-10-29T05:08:06.932Z,100752.20
2022-10-29T05:10:37.664Z,100750.00
2022-10-29T05:13:09.964Z,100756.20
2022-10-29T05:15:39.132Z,100752.60
2022-10-29T05:18:07.951Z,100757.40
2022-10-29T05:20:35.787Z,100764.20
2022-10-29T05:23:06.472Z,100768.20
2022-10-29T05:25:38.405Z,100779.40
2022-10-29T05:28:19.014Z,100787.60
2022-10-29T05:33:34.070Z,100786.60
2022-10-29T05:36:01.826Z,100798.40
2022-10-29T05:41:15.269Z,100802.80
2022-10-29T05:43:43.146Z,100798.60
2022-10-29T05:48:56.359Z,100785.60
2022-10-29T05:51:24.068Z,100788.80
2022-10-29T05:56:37.655Z,100781.20
2022-10-29T06:15:38.290Z,100776.00
2022-10-29T06:18:06.264Z,100775.80
2022-10-29T06:20:34.007Z,100783.00
2022-10-29T06:23:01.845Z,100783.20
2022-10-29T06:25:29.949Z,100775.40
2022-10-29T06:30:54.205Z,100778.80
2022-10-29T06:36:08.911Z,100787.40
2022-10-29T06:44:10.780Z,100789.40
2022-10-29T06:46:39.030Z,100790.00
2022-10-29T06:49:06.909Z,100790.60
2022-10-29T06:51:34.604Z,100798.20
2022-10-29T06:56:48.297Z,100800.40
2022-10-29T06:59:16.013Z,100805.00
2022-10-29T07:01:44.049Z,100801.00
2022-10-29T07:04:11.885Z,100809.60
2022-10-29T07:06:39.747Z,100810.80
2022-10-29T07:09:07.479Z,100817.60
2022-10-29T07:11:35.215Z,100814.20
2022-10-29T07:14:02.989Z,100812.80
2022-10-29T07:16:30.630Z,100814.40
2022-10-29T07:21:44.141Z,100807.40
2022-10-29T07:24:11.874Z,100805.40
2022-10-29T07:26:40.464Z,100801.80
2022-10-29T07:31:53.488Z,100805.40
2022-10-29T07:34:21.216Z,100799.20
2022-10-29T07:36:48.987Z,100798.80
2022-10-29T07:39:17.362Z,100794.60
2022-10-29T07:44:30.875Z,100795.20
2022-10-29T07:46:58.778Z,100795.00
2022-10-29T07:49:26.627Z,100794.00
2022-10-29T07:54:39.953Z,100800.20
2022-10-29T07:57:07.890Z,100793.20
2022-10-29T07:59:35.688Z,100798.40
2022-10-29T08:02:03.538Z,100801.00
2022-10-29T08:04:31.286Z,100797.60
2022-10-29T08:09:44.793Z,100800.00
2022-10-29T08:12:12.494Z,100793.80
2022-10-29T08:14:40.218Z,100794.00
2022-10-29T08:17:07.929Z,100795.40
2022-10-29T08:19:35.790Z,100794.40
2022-10-29T08:24:49.024Z,100781.40
2022-10-29T08:27:16.774Z,100781.40
2022-10-29T08:32:29.989Z,100795.60
2022-10-29T08:34:57.726Z,100790.80
2022-10-29T08:37:25.416Z,100800.60
2022-10-29T08:39:53.260Z,100804.60
2022-10-29T08:42:53.990Z,100809.00
2022-10-29T08:45:36.534Z,100809.00
2022-10-29T08:48:20.610Z,100808.20
2022-10-29T08:50:56.867Z,100807.40
2022-10-29T08:53:35.749Z,100799.20
2022-10-29T08:56:11.107Z,100794.20
2022-10-29T08:58:53.604Z,100789.80
2022-10-29T09:01:23.370Z,100792.80
2022-10-29T09:07:07.150Z,100797.00
2022-10-29T09:10:15.567Z,100801.20
2022-10-29T09:13:02.802Z,100809.80
2022-10-29T09:15:56.368Z,100808.80
2022-10-29T09:18:56.984Z,100817.00
2022-10-29T09:21:48.243Z,100833.00
2022-10-29T09:30:31.736Z,100819.20
2022-10-29T09:33:08.796Z,100815.80
2022-10-29T09:35:45.911Z,100810.40
2022-10-29T09:38:22.533Z,100806.80
2022-10-29T09:40:50.401Z,100806.60
2022-10-29T09:43:36.669Z,100805.40
2022-10-29T09:46:17.286Z,100800.80
2022-10-29T09:48:54.631Z,100796.80
2022-10-29T10:00:25.252Z,100816.80
2022-10-29T10:03:13.611Z,100826.80
2022-10-29T10:06:09.971Z,100829.20
2022-10-29T10:09:05.412Z,100836.20
2022-10-29T10:11:43.021Z,100845.00
2022-10-29T10:14:20.906Z,100836.40
2022-10-29T10:19:46.740Z,100841.40
2022-10-29T10:22:21.579Z,100846.20
2022-10-29T10:24:49.406Z,100831.40
2022-10-29T10:30:05.580Z,100814.40
2022-10-29T10:32:33.384Z,100824.60
2022-10-29T10:43:24.015Z,100838.20
2022-10-29T10:46:05.630Z,100840.40
2022-10-29T10:48:34.088Z,100852.80
2022-10-29T10:51:26.428Z,100865.60
2022-10-29T10:53:54.276Z,100861.40
2022-10-29T10:56:22.825Z,100859.20
2022-10-29T10:59:01.307Z,100861.60
2022-10-29T11:01:43.741Z,100862.00
2022-10-29T11:04:37.289Z,100861.00
2022-10-29T11:07:12.089Z,100862.00
2022-10-29T11:12:48.355Z,100853.00
2022-10-29T11:15:38.857Z,100844.60
2022-10-29T11:18:23.983Z,100840.00
2022-10-29T11:21:24.829Z,100833.40
2022-10-29T11:24:05.215Z,100837.60
2022-10-29T11:26:51.513Z,100845.00
2022-10-29T11:29:52.415Z,100834.00
2022-10-29T11:35:44.269Z,100838.60
2022-10-29T11:41:37.044Z,100839.60
2022-10-29T11:47:18.958Z,100852.40
2022-10-29T11:52:54.803Z,100858.60
2022-10-29T12:02:01.042Z,100866.60
2022-10-29T12:05:05.572Z,100860.40
2022-10-29T12:08:07.246Z,100851.60
2022-10-29T12:10:54.734Z,100842.80
2022-10-29T12:17:16.702Z,100835.60
2022-10-29T12:19:54.818Z,100833.00
2022-10-29T12:25:46.777Z,100831.00
2022-10-29T12:28:55.874Z,100828.00
2022-10-29T12:32:11.047Z,100826.80
2022-10-29T12:35:16.986Z,100830.00
2022-10-29T12:37:55.629Z,100827.20
2022-10-29T12:40:30.438Z,100832.60
2022-10-29T12:43:05.241Z,100831.80
2022-10-29T12:49:03.390Z,100842.20
2022-10-29T12:51:54.314Z,100844.80
2022-10-29T12:54:41.305Z,100851.80
2022-10-29T13:04:00.602Z,100837.40
2022-10-29T13:06:44.034Z,100828.80
2022-10-29T13:09:27.250Z,100842.20
2022-10-29T13:11:59.123Z,100839.20
2022-10-29T13:14:47.198Z,100846.40
2022-10-29T13:17:35.057Z,100847.40
2022-10-29T13:23:22.991Z,100839.40
2022-10-29T13:25:56.383Z,100838.00
2022-10-29T13:28:24.024Z,100844.40
2022-10-29T13:31:14.074Z,100849.00
2022-10-29T13:33:41.779Z,100858.20
2022-10-29T13:36:15.725Z,100855.60
2022-10-29T13:39:08.224Z,100852.60
2022-10-29T13:44:29.851Z,100861.40
2022-10-29T13:47:03.449Z,100859.00
2022-10-29T13:58:31.574Z,100851.60
2022-10-29T14:01:02.942Z,100844.60
2022-10-29T14:06:40.453Z,100846.20
2022-10-29T14:09:24.480Z,100852.40
2022-10-29T14:12:02.643Z,100857.40
2022-10-29T14:14:45.622Z,100859.00
2022-10-29T14:17:17.147Z,100863.40
2022-10-29T14:22:40.776Z,100850.20
2022-10-29T14:25:36.033Z,100850.00
2022-10-29T14:28:19.665Z,100847.20
2022-10-29T14:30:58.223Z,100852.80
2022-10-29T14:33:32.899Z,100852.00
2022-10-29T14:39:32.700Z,100852.00
2022-10-29T14:45:30.071Z,100856.80
2022-10-29T14:53:40.559Z,100861.40
2022-10-29T14:56:18.303Z,100859.20
2022-10-29T14:58:47.157Z,100865.00
2022-10-29T15:01:20.625Z,100864.60
2022-10-29T15:03:57.501Z,100864.80
2022-10-29T15:06:28.761Z,100861.60
2022-10-29T15:09:00.155Z,100866.20
2022-10-29T15:11:34.948Z,100866.80
2022-10-29T15:14:05.768Z,100852.00
2022-10-29T15:22:11.154Z,100859.40
2022-10-29T15:24:39.062Z,100864.80
2022-10-29T15:29:58.421Z,100874.60
2022-10-29T15:32:30.516Z,100879.20
2022-10-29T15:40:31.826Z,100882.20
2022-10-29T15:43:29.404Z,100883.20
2022-10-29T15:45:58.238Z,100884.80
2022-10-29T15:48:26.156Z,100880.40
2022-10-29T15:50:57.610Z,100884.40
2022-10-29T16:04:31.745Z,100866.20
2022-10-29T16:07:00.029Z,100870.00
2022-10-29T16:17:45.418Z,100873.00
2022-10-29T16:20:19.515Z,100876.20
2022-10-29T16:22:48.800Z,100879.20
2022-10-29T16:28:07.664Z,100875.40
2022-10-29T16:33:05.641Z,100884.20
2022-10-29T16:35:33.433Z,100883.20
2022-10-29T16:38:03.915Z,100882.80
2022-10-29T16:40:31.926Z,100883.20
2022-10-29T16:43:00.160Z,100884.40
2022-10-29T16:45:29.989Z,100882.20
2022-10-29T16:50:44.334Z,100889.20
2022-10-29T16:53:12.315Z,100881.00
2022-10-29T16:55:41.635Z,100882.00
2022-10-29T17:01:08.329Z,100877.20
2022-10-29T17:03:39.027Z,100875.00
2022-10-29T17:06:10.695Z,100869.80
2022-10-29T17:08:38.993Z,100871.20
2022-10-29T17:11:10.070Z,100866.20
2022-10-29T17:13:38.755Z,100873.40
2022-10-29T17:19:00.103Z,100881.20
2022-10-29T17:27:02.880Z,100895.00
2022-10-29T17:29:36.000Z,100896.00
2022-10-29T17:32:07.702Z,100894.20
2022-10-29T17:40:10.820Z,100885.00
2022-10-29T17:45:24.382Z,100889.60
2022-10-29T17:47:59.229Z,100894.20
2022-10-29T17:50:27.459Z,100893.60
2022-10-29T17:52:57.914Z,100895.80
2022-10-29T17:55:25.693Z,100888.60
2022-10-29T17:57:53.630Z,100884.80
2022-10-29T18:00:21.821Z,100880.20
2022-10-29T18:02:52.649Z,100880.60
2022-10-29T18:05:20.429Z,100885.00
2022-10-29T18:13:23.244Z,100888.80
2022-10-29T18:15:50.994Z,100893.20
2022-10-29T18:18:18.708Z,100897.60
2022-10-29T18:23:34.758Z,100902.40
2022-10-29T18:26:19.574Z,100899.20
2022-10-29T18:28:48.152Z,100900.80
2022-10-29T18:34:05.962Z,100903.00
2022-10-29T18:36:35.876Z,100903.60
2022-10-29T18:39:06.429Z,100912.00
2022-10-29T18:41:35.271Z,100915.20
2022-10-29T18:49:33.690Z,100910.80
2022-10-29T18:54:46.901Z,100920.40
2022-10-29T18:57:18.381Z,100917.80
2022-10-29T18:59:49.057Z,100911.60
2022-10-29T19:05:02.141Z,100911.60
2022-10-29T19:07:29.924Z,100920.00
2022-10-29T19:10:00.645Z,100934.60
2022-10-29T19:12:28.796Z,100937.60
2022-10-29T19:14:56.685Z,100935.20
2022-10-29T19:22:57.644Z,100935.60
2022-10-29T19:28:10.979Z,100934.00
2022-10-29T19:33:24.053Z,100945.60
2022-10-29T19:35:52.228Z,100942.80
2022-10-29T19:38:20.145Z,100943.40
2022-10-29T19:43:36.489Z,100949.80
2022-10-29T19:46:13.219Z,100943.60
2022-10-29T19:51:27.630Z,100943.20
2022-10-29T19:53:57.987Z,100940.20
2022-10-29T19:56:25.927Z,100942.00
2022-10-29T20:01:41.912Z,100947.60
2022-10-29T20:09:40.881Z,100942.20
2022-10-29T20:12:08.810Z,100936.80
2022-10-29T20:14:36.674Z,100939.80
2022-10-29T20:17:04.587Z,100950.80
2022-10-29T20:19:32.309Z,100943.00
2022-10-29T20:22:00.099Z,100943.60
2022-10-29T20:24:27.965Z,100944.00
2022-10-29T20:32:26.603Z,100929.80
2022-10-29T20:34:54.542Z,100929.00
2022-10-29T20:40:08.870Z,100941.00
2022-10-29T20:42:36.782Z,100935.40
2022-10-29T20:45:05.626Z,100926.00
2022-10-29T20:47:33.344Z,100931.00
2022-10-29T20:52:48.834Z,100935.00
2022-10-29T21:00:48.858Z,100932.80
2022-10-29T21:03:18.296Z,100928.80
2022-10-29T21:08:31.668Z,100934.40
2022-10-29T21:11:01.536Z,100936.40
2022-10-29T21:13:29.857Z,100933.80
2022-10-29T21:16:27.325Z,100937.40
2022-10-29T21:18:58.489Z,100935.20
2022-10-29T21:21:28.984Z,100929.00
2022-10-29T21:23:57.409Z,100927.80
2022-10-29T21:26:26.491Z,100923.00
2022-10-29T21:28:54.773Z,100921.60
2022-10-29T21:31:23.712Z,100917.60
2022-10-29T21:36:41.093Z,100910.80
2022-10-29T21:39:08.761Z,100914.00
2022-10-29T21:41:36.557Z,100910.80
2022-10-29T21:44:04.557Z,100901.60
2022-10-29T21:46:32.288Z,100906.20
2022-10-29T21:49:00.075Z,100913.80
2022-10-29T21:51:30.542Z,100912.60
2022-10-29T21:54:00.696Z,100910.40
2022-10-29T21:56:28.572Z,100915.00
2022-10-29T21:58:56.406Z,100921.60
2022-10-29T22:01:24.295Z,100923.00
2022-10-29T22:03:52.093Z,100924.80
2022-10-29T22:09:09.997Z,100927.20
2022-10-29T22:11:37.714Z,100925.40
2022-10-29T22:14:05.371Z,100923.20
2022-10-29T22:16:33.132Z,100920.60
2022-10-29T22:19:00.804Z,100919.40
2022-10-29T22:21:28.531Z,100927.20
2022-10-29T22:23:58.141Z,100922.00
2022-10-29T22:26:29.752Z,100918.60
2022-10-29T22:28:59.123Z,100913.60
2022-10-29T22:31:27.379Z,100910.80
2022-10-29T22:33:55.406Z,100900.60
2022-10-29T22:36:26.613Z,100890.80
2022-10-29T22:39:00.042Z,100880.80
2022-10-29T22:41:29.763Z,100876.80
2022-10-29T22:43:59.066Z,100871.00
2022-10-29T22:52:01.528Z,100885.00
2022-10-29T22:54:29.621Z,100889.00
2022-10-29T22:56:57.338Z,100881.00
2022-10-29T22:59:25.030Z,100881.00
2022-10-29T23:01:52.822Z,100884.80
2022-10-29T23:04:23.938Z,100880.00
2022-10-29T23:06:51.600Z,100883.80
2022-10-29T23:09:19.314Z,100887.00
2022-10-29T23:11:47.110Z,100893.00
2022-10-29T23:17:00.205Z,100886.60
2022-10-29T23:19:28.116Z,100899.80
2022-10-29T23:24:40.849Z,100898.60
2022-10-29T23:27:08.751Z,100905.00
2022-10-29T23:29:36.397Z,100905.20
2022-10-29T23:32:04.423Z,100904.00
2022-10-29T23:34:32.134Z,100902.60
2022-10-29T23:37:01.186Z,100896.20
2022-10-29T23:39:30.931Z,100898.40
2022-10-29T23:41:58.677Z,100898.00
2022-10-29T23:44:26.646Z,100896.00
2022-10-29T23:46:54.323Z,100898.20
2022-10-29T23:49:22.199Z,100895.20
2022-10-29T23:54:35.567Z,100894.40
2022-10-29T23:57:03.272Z,100886.00
